createdAt,value
2022-12-31T00:01:34.040Z,95.38
2022-12-31T00:04:02.170Z,95.35
2022-12-31T00:06:32.105Z,95.53
2022-12-31T00:09:03.838Z,95.72
2022-12-31T00:11:33.022Z,95.90
2022-12-31T00:14:01.179Z,95.89
2022-12-31T00:16:31.198Z,95.91
2022-12-31T00:19:01.898Z,95.86
2022-12-31T00:21:33.075Z,95.86
2022-12-31T00:24:01.264Z,95.99
2022-12-31T00:26:31.673Z,95.94
2022-12-31T00:29:01.263Z,95.67
2022-12-31T00:31:38.595Z,95.56
2022-12-31T00:34:08.556Z,95.45
2022-12-31T00:36:39.654Z,95.56
2022-12-31T00:39:09.467Z,95.63
2022-12-31T00:41:37.631Z,95.63
2022-12-31T00:44:05.906Z,95.65
2022-12-31T00:49:02.073Z,95.45
2022-12-31T00:51:31.671Z,95.35
2022-12-31T00:54:06.222Z,95.38
2022-12-31T00:56:34.565Z,95.37
2022-12-31T00:59:02.773Z,95.23
2022-12-31T01:01:32.639Z,95.32
2022-12-31T01:04:04.898Z,95.33
2022-12-31T01:06:34.649Z,95.36
2022-12-31T01:09:02.868Z,95.43
2022-12-31T01:11:31.500Z,95.34
2022-12-31T01:14:01.810Z,95.16
2022-12-31T01:16:32.231Z,95.19
2022-12-31T01:19:01.764Z,95.21
2022-12-31T01:21:30.533Z,95.00
2022-12-31T01:24:01.119Z,95.03
2022-12-31T01:26:29.806Z,95.15
2022-12-31T01:28:58.230Z,95.25
2022-12-31T01:31:26.886Z,95.15
2022-12-31T01:33:55.747Z,95.13
2022-12-31T01:36:26.606Z,95.41
2022-12-31T01:38:57.131Z,95.42
2022-12-31T01:41:31.568Z,95.32
2022-12-31T01:44:01.425Z,95.15
2022-12-31T01:46:36.239Z,95.00
2022-12-31T01:49:11.858Z,94.88
2022-12-31T01:51:42.301Z,95.08
2022-12-31T01:54:12.879Z,95.16
2022-12-31T01:56:44.496Z,95.08
2022-12-31T01:59:15.386Z,95.03
2022-12-31T02:01:46.785Z,94.92
2022-12-31T02:04:15.963Z,94.65
2022-12-31T02:06:48.434Z,94.71
2022-12-31T02:09:17.048Z,94.71
2022-12-31T02:11:46.612Z,94.75
2022-12-31T02:14:18.479Z,94.88
2022-12-31T02:16:55.797Z,95.22
2022-12-31T02:20:00.168Z,95.25
2022-12-31T02:22:53.322Z,95.21
2022-12-31T02:25:38.049Z,95.46
2022-12-31T02:28:21.439Z,95.51
2022-12-31T02:30:55.554Z,95.37
2022-12-31T02:33:33.532Z,95.16
2022-12-31T02:36:06.647Z,95.29
2022-12-31T02:38:40.124Z,95.29
2022-12-31T02:41:33.634Z,95.22
2022-12-31T02:44:01.873Z,95.19
2022-12-31T02:46:39.420Z,95.44
2022-12-31T02:49:15.333Z,95.50
2022-12-31T02:51:51.347Z,95.50
2022-12-31T02:54:24.410Z,95.25
2022-12-31T02:57:02.163Z,95.29
2022-12-31T02:59:56.518Z,95.46
2022-12-31T03:02:29.184Z,95.40
2022-12-31T03:04:58.918Z,95.56
2022-12-31T03:07:29.052Z,95.51
2022-12-31T03:09:57.491Z,95.50
2022-12-31T03:12:46.169Z,95.48
2022-12-31T03:15:21.863Z,95.34
2022-12-31T03:17:58.025Z,95.18
2022-12-31T03:20:46.638Z,95.06
2022-12-31T03:23:19.088Z,95.02
2022-12-31T03:25:46.752Z,95.18
2022-12-31T03:28:18.750Z,95.33
2022-12-31T03:30:49.455Z,95.38
2022-12-31T03:33:19.737Z,95.51
2022-12-31T03:35:49.041Z,95.60
2022-12-31T03:38:17.925Z,95.63
2022-12-31T03:40:47.927Z,95.64
2022-12-31T03:43:16.285Z,95.59
2022-12-31T03:45:44.503Z,95.52
2022-12-31T03:48:12.737Z,95.64
2022-12-31T03:50:42.297Z,95.43
2022-12-31T03:53:11.268Z,95.53
2022-12-31T03:55:39.474Z,95.70
2022-12-31T03:58:07.905Z,95.73
2022-12-31T04:00:36.075Z,95.76
2022-12-31T04:03:04.320Z,95.75
2022-12-31T04:05:33.785Z,95.46
2022-12-31T04:08:03.357Z,95.56
2022-12-31T04:10:31.556Z,96.08
2022-12-31T04:13:03.126Z,96.21
2022-12-31T04:15:31.361Z,96.20
2022-12-31T04:17:59.570Z,96.12
2022-12-31T04:20:27.806Z,96.07
2022-12-31T04:22:55.941Z,96.07
2022-12-31T04:25:25.507Z,95.95
2022-12-31T04:27:53.649Z,95.99
2022-12-31T04:30:21.745Z,96.03
2022-12-31T04:32:49.903Z,96.21
2022-12-31T04:35:18.264Z,96.14
2022-12-31T04:37:46.399Z,96.02
2022-12-31T04:40:14.612Z,96.16
2022-12-31T04:42:44.743Z,96.16
2022-12-31T04:45:13.142Z,96.10
2022-12-31T04:47:41.284Z,96.04
2022-12-31T04:50:11.543Z,95.92
2022-12-31T04:52:42.893Z,95.96
2022-12-31T04:55:11.640Z,96.11
2022-12-31T04:57:39.895Z,96.12
2022-12-31T05:00:10.939Z,96.31
2022-12-31T05:02:39.321Z,96.35
2022-12-31T05:05:08.449Z,96.22
2022-12-31T05:07:36.628Z,96.14
2022-12-31T05:10:05.951Z,96.04
2022-12-31T05:12:34.231Z,96.05
2022-12-31T05:15:02.579Z,96.10
2022-12-31T05:17:32.197Z,95.84
2022-12-31T05:20:00.641Z,95.39
2022-12-31T05:22:31.261Z,94.77
2022-12-31T05:25:00.689Z,94.15
2022-12-31T05:27:31.247Z,93.92
2022-12-31T05:29:59.732Z,93.67
2022-12-31T05:32:28.288Z,93.78
2022-12-31T05:34:58.102Z,93.76
2022-12-31T05:37:26.442Z,94.02
2022-12-31T05:39:54.679Z,94.45
2022-12-31T05:42:27.265Z,94.73
2022-12-31T05:44:55.547Z,95.04
2022-12-31T05:47:24.111Z,95.27
2022-12-31T05:49:52.325Z,95.42
2022-12-31T05:52:22.054Z,95.55
2022-12-31T05:54:50.243Z,95.44
2022-12-31T05:57:18.417Z,95.19
2022-12-31T05:59:46.623Z,95.12
2022-12-31T06:02:14.983Z,94.93
2022-12-31T06:04:43.176Z,94.76
2022-12-31T06:07:11.455Z,94.59
2022-12-31T06:09:41.127Z,94.47
2022-12-31T06:12:10.294Z,94.67
2022-12-31T06:14:43.782Z,94.74
2022-12-31T06:17:13.831Z,94.48
2022-12-31T06:19:42.119Z,94.29
2022-12-31T06:22:10.362Z,94.66
2022-12-31T06:24:38.469Z,94.86
2022-12-31T06:27:08.146Z,95.07
2022-12-31T06:29:36.294Z,95.12
2022-12-31T06:32:04.665Z,95.23
2022-12-31T06:34:32.841Z,95.46
2022-12-31T06:37:00.947Z,95.75
2022-12-31T06:39:29.352Z,95.69
2022-12-31T06:41:57.813Z,95.74
2022-12-31T06:44:27.416Z,95.91
2022-12-31T06:46:55.640Z,95.83
2022-12-31T06:49:23.850Z,95.83
2022-12-31T06:51:52.016Z,95.83
2022-12-31T06:54:20.647Z,95.98
2022-12-31T06:56:49.290Z,96.08
2022-12-31T06:59:26.370Z,96.22
2022-12-31T07:02:12.816Z,96.30
2022-12-31T07:05:14.208Z,96.39
2022-12-31T07:07:56.626Z,96.42
2022-12-31T07:10:37.335Z,96.55
2022-12-31T07:13:18.673Z,96.41
2022-12-31T07:16:01.742Z,95.80
2022-12-31T07:18:38.152Z,95.05
2022-12-31T07:21:11.937Z,94.81
2022-12-31T07:23:40.650Z,94.95
2022-12-31T07:26:21.379Z,95.25
2022-12-31T07:29:00.499Z,95.44
2022-12-31T07:31:48.116Z,95.49
2022-12-31T07:34:26.544Z,95.70
2022-12-31T07:37:04.551Z,95.93
2022-12-31T07:39:40.346Z,96.06
2022-12-31T07:42:16.287Z,96.40
2022-12-31T07:44:56.494Z,96.72
2022-12-31T07:47:26.943Z,96.72
2022-12-31T07:49:58.262Z,96.86
2022-12-31T07:52:27.390Z,97.04
2022-12-31T07:54:55.631Z,97.09
2022-12-31T07:57:27.470Z,97.13
2022-12-31T08:00:06.165Z,96.92
2022-12-31T08:03:05.061Z,96.76
2022-12-31T08:05:41.043Z,96.63
2022-12-31T08:08:17.023Z,96.54
2022-12-31T08:10:57.849Z,96.43
2022-12-31T08:13:27.000Z,96.23
2022-12-31T08:15:56.156Z,96.13
2022-12-31T08:18:24.792Z,95.95
2022-12-31T08:21:05.639Z,95.74
2022-12-31T08:23:48.336Z,95.67
2022-12-31T08:26:28.362Z,95.53
2022-12-31T08:29:05.929Z,95.63
2022-12-31T08:31:45.322Z,95.45
2022-12-31T08:34:24.135Z,95.46
2022-12-31T08:37:01.461Z,95.50
2022-12-31T08:39:45.350Z,95.37
2022-12-31T08:42:23.357Z,95.33
2022-12-31T08:45:00.729Z,95.28
2022-12-31T08:47:39.993Z,95.13
2022-12-31T08:50:14.459Z,95.12
2022-12-31T08:52:45.898Z,94.93
2022-12-31T08:55:16.744Z,94.86
2022-12-31T08:57:53.600Z,94.60
2022-12-31T09:00:23.143Z,94.59
2022-12-31T09:03:17.981Z,94.68
2022-12-31T09:05:54.884Z,94.68
2022-12-31T09:08:31.767Z,94.64
2022-12-31T09:11:07.715Z,94.31
2022-12-31T09:13:40.606Z,94.35
2022-12-31T09:16:15.266Z,94.61
2022-12-31T09:18:47.170Z,94.32
2022-12-31T09:21:17.112Z,94.57
2022-12-31T09:23:47.336Z,94.23
2022-12-31T09:26:38.854Z,94.10
2022-12-31T09:29:14.306Z,94.23
2022-12-31T09:31:51.090Z,94.44
2022-12-31T09:34:27.163Z,94.22
2022-12-31T09:36:58.147Z,94.21
2022-12-31T09:39:34.198Z,93.95
2022-12-31T09:42:26.784Z,93.93
2022-12-31T09:45:23.993Z,93.87
2022-12-31T09:48:33.992Z,93.46
2022-12-31T09:51:21.678Z,93.40
2022-12-31T09:54:15.087Z,93.41
2022-12-31T09:56:57.164Z,92.84
2022-12-31T09:59:37.456Z,92.60
2022-12-31T10:02:21.648Z,92.63
2022-12-31T10:05:01.352Z,92.06
2022-12-31T10:07:50.382Z,92.10
2022-12-31T10:10:25.214Z,92.53
2022-12-31T10:13:38.158Z,92.40
2022-12-31T10:16:39.601Z,91.79
2022-12-31T10:19:36.492Z,91.41
2022-12-31T10:22:12.203Z,91.57
2022-12-31T10:24:56.097Z,91.84
2022-12-31T10:27:50.633Z,91.48
2022-12-31T10:30:22.540Z,91.78
2022-12-31T10:33:01.518Z,91.69
2022-12-31T10:35:38.183Z,91.87
2022-12-31T10:38:19.644Z,91.99
2022-12-31T10:41:21.430Z,91.67
2022-12-31T10:44:32.333Z,91.91
2022-12-31T10:47:35.352Z,91.81
2022-12-31T10:50:40.268Z,91.84
2022-12-31T10:53:56.211Z,91.79
2022-12-31T10:56:55.357Z,91.95
2022-12-31T10:59:54.328Z,92.15
2022-12-31T11:03:01.709Z,92.32
2022-12-31T11:06:20.040Z,92.30
2022-12-31T11:09:32.705Z,92.17
2022-12-31T11:12:09.784Z,92.21
2022-12-31T11:14:59.131Z,91.79
2022-12-31T11:17:37.090Z,91.83
2022-12-31T11:20:24.158Z,91.96
2022-12-31T11:23:09.611Z,91.76
2022-12-31T11:25:50.566Z,91.58
2022-12-31T11:28:51.089Z,91.51
2022-12-31T11:31:33.865Z,91.67
2022-12-31T11:34:19.170Z,91.43
2022-12-31T11:37:02.575Z,90.88
2022-12-31T11:39:48.441Z,91.00
2022-12-31T11:42:25.981Z,91.21
2022-12-31T11:45:00.895Z,91.29
2022-12-31T11:48:28.702Z,91.20
2022-12-31T11:50:48.048Z,91.25
2022-12-31T11:53:33.069Z,91.37
2022-12-31T11:56:18.983Z,91.16
2022-12-31T11:58:51.195Z,90.85
2022-12-31T12:01:26.138Z,90.94
2022-12-31T12:03:55.465Z,90.92
2022-12-31T12:06:28.675Z,90.54
2022-12-31T12:09:01.176Z,90.02
2022-12-31T12:11:36.038Z,89.46
2022-12-31T12:14:22.374Z,89.49
2022-12-31T12:16:59.162Z,89.34
2022-12-31T12:19:34.846Z,88.80
2022-12-31T12:22:12.862Z,88.81
2022-12-31T12:24:41.681Z,88.81
2022-12-31T12:27:25.205Z,87.83
2022-12-31T12:29:53.433Z,88.87
2022-12-31T12:32:25.064Z,89.14
2022-12-31T12:34:54.216Z,88.77
2022-12-31T12:37:33.514Z,88.79
2022-12-31T12:40:03.372Z,89.25
2022-12-31T12:42:33.654Z,88.76
2022-12-31T12:45:06.339Z,88.73
2022-12-31T12:47:35.708Z,88.22
2022-12-31T12:50:05.146Z,88.76
2022-12-31T12:53:09.382Z,89.24
2022-12-31T12:55:48.028Z,89.24
2022-12-31T12:58:40.039Z,88.73
2022-12-31T13:01:16.091Z,89.01
2022-12-31T13:07:11.731Z,88.94
2022-12-31T13:09:55.288Z,88.35
2022-12-31T13:12:48.976Z,89.00
2022-12-31T13:15:30.120Z,89.32
2022-12-31T13:18:09.137Z,89.28
2022-12-31T13:20:46.263Z,88.70
2022-12-31T13:23:24.101Z,89.31
2022-12-31T13:26:03.174Z,89.09
2022-12-31T13:28:33.297Z,89.34
2022-12-31T13:31:07.255Z,89.29
2022-12-31T13:33:41.461Z,89.43
2022-12-31T13:36:11.687Z,89.21
2022-12-31T13:38:43.489Z,89.66
2022-12-31T13:41:19.157Z,89.78
2022-12-31T13:43:54.793Z,89.75
2022-12-31T13:46:33.527Z,89.54
2022-12-31T13:49:05.472Z,89.52
2022-12-31T13:51:42.355Z,89.69
2022-12-31T13:54:23.267Z,89.48
2022-12-31T13:56:53.374Z,89.74
2022-12-31T13:59:27.536Z,89.82
2022-12-31T14:02:02.004Z,90.02
2022-12-31T14:04:35.146Z,90.16
2022-12-31T14:07:08.905Z,90.06
2022-12-31T14:09:38.513Z,89.84
2022-12-31T14:12:20.655Z,90.11
2022-12-31T14:14:55.670Z,89.91
2022-12-31T14:17:34.588Z,90.05
2022-12-31T14:20:18.314Z,90.43
2022-12-31T14:22:53.162Z,90.15
2022-12-31T14:25:30.753Z,90.12
2022-12-31T14:28:03.083Z,90.04
2022-12-31T14:30:34.331Z,89.99
2022-12-31T14:33:16.672Z,89.72
2022-12-31T14:36:10.623Z,89.71
2022-12-31T14:38:54.179Z,89.89
2022-12-31T14:41:44.730Z,90.70
2022-12-31T14:44:28.456Z,90.55
2022-12-31T14:47:13.226Z,90.85
2022-12-31T14:49:51.288Z,90.56
2022-12-31T14:52:25.278Z,90.66
2022-12-31T14:55:22.975Z,90.50
2022-12-31T15:00:41.191Z,91.25
2022-12-31T15:03:25.548Z,91.04
2022-12-31T15:06:00.257Z,91.22
2022-12-31T15:08:40.899Z,91.10
2022-12-31T15:11:23.885Z,91.34
2022-12-31T15:14:18.243Z,91.65
2022-12-31T15:16:56.030Z,91.67
2022-12-31T15:19:53.391Z,91.77
2022-12-31T15:22:33.529Z,91.61
2022-12-31T15:25:03.174Z,91.86
2022-12-31T15:27:36.952Z,92.37
2022-12-31T15:30:07.383Z,92.52
2022-12-31T15:32:38.167Z,92.52
2022-12-31T15:35:27.412Z,92.32
2022-12-31T15:38:02.287Z,92.48
2022-12-31T15:40:31.811Z,92.51
2022-12-31T15:43:10.474Z,92.62
2022-12-31T15:45:40.929Z,91.98
2022-12-31T15:48:16.585Z,92.43
2022-12-31T15:50:46.107Z,92.82
2022-12-31T15:53:28.439Z,92.75
2022-12-31T15:55:59.434Z,92.80
2022-12-31T15:58:32.185Z,92.59
2022-12-31T16:01:09.920Z,92.63
2022-12-31T16:03:38.586Z,92.94
2022-12-31T16:06:13.366Z,92.56
2022-12-31T16:08:47.019Z,91.79
2022-12-31T16:11:16.276Z,91.96
2022-12-31T16:13:47.776Z,92.95
2022-12-31T16:16:23.579Z,93.28
2022-12-31T16:18:53.304Z,93.02
2022-12-31T16:21:27.098Z,93.51
2022-12-31T16:23:58.441Z,93.45
2022-12-31T16:26:32.668Z,94.01
2022-12-31T16:29:01.507Z,94.00
2022-12-31T16:31:33.098Z,93.70
2022-12-31T16:34:06.281Z,93.39
2022-12-31T16:36:35.537Z,93.68
2022-12-31T16:39:25.459Z,93.68
2022-12-31T16:42:07.956Z,93.78
2022-12-31T16:44:36.566Z,92.97
2022-12-31T16:47:07.234Z,93.20
2022-12-31T16:49:39.060Z,93.81
2022-12-31T16:52:09.974Z,93.19
2022-12-31T16:54:45.713Z,93.95
2022-12-31T16:57:21.331Z,93.29
2022-12-31T16:59:53.252Z,94.07
2022-12-31T17:02:24.296Z,94.05
2022-12-31T17:04:56.387Z,94.00
2022-12-31T17:07:43.629Z,94.09
2022-12-31T17:10:21.631Z,94.79
2022-12-31T17:15:46.229Z,94.49
2022-12-31T17:18:19.717Z,93.89
2022-12-31T17:20:48.994Z,93.08
2022-12-31T17:23:25.249Z,93.85
2022-12-31T17:26:02.118Z,93.80
2022-12-31T17:28:38.669Z,93.24
2022-12-31T17:31:29.206Z,94.25
2022-12-31T17:34:08.322Z,93.48
2022-12-31T17:36:38.570Z,93.12
2022-12-31T17:39:18.624Z,93.50
2022-12-31T17:41:50.829Z,93.69
2022-12-31T17:44:22.735Z,93.98
2022-12-31T17:46:52.133Z,94.27
2022-12-31T17:49:27.218Z,94.48
2022-12-31T17:51:55.513Z,95.61
2022-12-31T17:54:23.727Z,94.42
2022-12-31T17:56:53.769Z,94.35
2022-12-31T17:59:24.885Z,95.62
2022-12-31T18:01:53.301Z,95.05
2022-12-31T18:04:21.878Z,94.93
2022-12-31T18:06:50.102Z,95.25
2022-12-31T18:09:18.334Z,95.38
2022-12-31T18:11:47.027Z,95.27
2022-12-31T18:14:17.505Z,95.42
2022-12-31T18:16:46.104Z,95.35
2022-12-31T18:19:45.820Z,95.65
2022-12-31T18:22:08.188Z,96.15
2022-12-31T18:24:36.627Z,97.12
2022-12-31T18:27:05.377Z,97.46
2022-12-31T18:29:36.438Z,96.96
2022-12-31T18:32:05.091Z,96.97
2022-12-31T18:34:33.209Z,95.96
2022-12-31T18:37:01.477Z,96.40
2022-12-31T18:39:29.833Z,95.89
2022-12-31T18:41:58.015Z,96.24
2022-12-31T18:44:26.221Z,96.94
2022-12-31T18:46:55.842Z,96.89
2022-12-31T18:49:24.191Z,96.71
2022-12-31T18:51:54.318Z,96.59
2022-12-31T18:54:22.673Z,96.70
2022-12-31T18:56:56.811Z,96.75
2022-12-31T18:59:26.581Z,97.05
2022-12-31T19:01:56.412Z,97.08
2022-12-31T19:04:28.297Z,96.92
2022-12-31T19:06:57.233Z,97.34
2022-12-31T19:12:16.740Z,97.28
2022-12-31T19:14:45.666Z,96.83
2022-12-31T19:17:15.656Z,96.93
2022-12-31T19:19:43.965Z,96.65
2022-12-31T19:22:16.322Z,96.92
2022-12-31T19:24:44.780Z,96.54
2022-12-31T19:27:17.102Z,96.21
2022-12-31T19:29:45.695Z,95.78
2022-12-31T19:32:15.298Z,95.87
2022-12-31T19:34:44.672Z,95.24
2022-12-31T19:37:22.259Z,95.34
2022-12-31T19:39:50.681Z,95.51
2022-12-31T19:42:19.000Z,95.36
2022-12-31T19:44:47.302Z,94.78
2022-12-31T19:47:18.054Z,95.15
2022-12-31T19:49:46.768Z,95.46
2022-12-31T19:52:15.009Z,95.87
2022-12-31T19:54:43.248Z,96.54
2022-12-31T19:57:11.468Z,96.80
2022-12-31T19:59:39.750Z,96.64
2022-12-31T20:02:08.655Z,96.86
2022-12-31T20:04:38.439Z,96.93
2022-12-31T20:07:06.777Z,96.79
2022-12-31T20:09:35.088Z,96.84
2022-12-31T20:12:03.407Z,97.00
2022-12-31T20:14:33.008Z,97.10
2022-12-31T20:17:01.400Z,97.14
2022-12-31T20:19:30.743Z,97.01
2022-12-31T20:22:00.878Z,96.94
2022-12-31T20:24:31.315Z,97.07
2022-12-31T20:27:00.116Z,97.16
2022-12-31T20:29:28.721Z,97.51
2022-12-31T20:32:01.840Z,97.91
2022-12-31T20:34:30.923Z,98.00
2022-12-31T20:37:00.699Z,97.79
2022-12-31T20:39:29.068Z,97.54
2022-12-31T20:41:57.423Z,97.36
2022-12-31T20:44:25.889Z,97.37
2022-12-31T20:46:54.310Z,97.10
2022-12-31T20:49:37.518Z,96.75
2022-12-31T20:52:12.683Z,96.91
2022-12-31T20:54:41.478Z,97.12
2022-12-31T20:57:10.121Z,97.10
2022-12-31T20:59:38.613Z,96.68
2022-12-31T21:02:29.490Z,96.69
2022-12-31T21:04:56.098Z,96.67
2022-12-31T21:07:26.159Z,96.56
2022-12-31T21:09:54.413Z,97.06
2022-12-31T21:12:40.405Z,97.53
2022-12-31T21:15:09.991Z,97.72
2022-12-31T21:17:38.219Z,97.63
2022-12-31T21:20:08.000Z,97.38
2022-12-31T21:22:37.777Z,97.06
2022-12-31T21:25:06.897Z,96.90
2022-12-31T21:27:37.055Z,96.98
2022-12-31T21:30:22.093Z,97.24
2022-12-31T21:32:50.618Z,97.87
2022-12-31T21:38:10.524Z,98.07
2022-12-31T21:40:40.163Z,98.15
2022-12-31T21:43:08.722Z,98.08
2022-12-31T21:45:37.075Z,96.95
2022-12-31T21:48:25.194Z,95.06
2022-12-31T21:50:55.192Z,94.70
2022-12-31T21:53:32.291Z,94.58
2022-12-31T21:56:11.676Z,95.30
2022-12-31T21:58:41.952Z,95.45
2022-12-31T22:01:34.162Z,96.06
2022-12-31T22:04:02.900Z,96.61
2022-12-31T22:06:31.454Z,97.56
2022-12-31T22:09:01.448Z,97.04
2022-12-31T22:11:30.583Z,97.43
2022-12-31T22:13:59.095Z,97.76
2022-12-31T22:16:27.678Z,98.06
2022-12-31T22:18:57.244Z,98.07
2022-12-31T22:21:32.015Z,98.13
2022-12-31T22:24:03.197Z,97.76
2022-12-31T22:26:31.618Z,97.82
2022-12-31T22:29:00.226Z,97.59
2022-12-31T22:31:33.134Z,97.62
2022-12-31T22:34:02.251Z,97.83
2022-12-31T22:36:30.884Z,97.76
2022-12-31T22:39:01.735Z,97.93
2022-12-31T22:41:30.660Z,97.58
2022-12-31T22:44:04.160Z,98.17
2022-12-31T22:46:33.911Z,98.07
2022-12-31T22:49:03.675Z,98.05
2022-12-31T22:51:56.550Z,98.24
2022-12-31T22:54:22.514Z,97.54
2022-12-31T22:56:51.350Z,97.54
2022-12-31T22:59:19.670Z,97.39
2022-12-31T23:01:48.356Z,97.45
2022-12-31T23:04:17.100Z,97.71
2022-12-31T23:06:47.448Z,97.83
2022-12-31T23:09:35.842Z,97.76
2022-12-31T23:12:09.796Z,97.83
2022-12-31T23:14:56.862Z,97.96
2022-12-31T23:17:44.480Z,98.05
2022-12-31T23:20:33.739Z,97.86
2022-12-31T23:23:12.608Z,98.12
2022-12-31T23:25:43.444Z,98.32
2022-12-31T23:28:17.512Z,98.41
2022-12-31T23:30:46.475Z,98.43
2022-12-31T23:33:17.473Z,98.36
2022-12-31T23:35:46.321Z,98.45
2022-12-31T23:38:16.791Z,98.66
2022-12-31T23:40:45.296Z,98.69
2022-12-31T23:43:21.186Z,98.66
2022-12-31T23:45:49.532Z,98.51
2022-12-31T23:48:17.880Z,98.20
2022-12-31T23:50:52.500Z,97.63
2022-12-31T23:53:21.581Z,97.41
2022-12-31T23:55:49.970Z,97.41
2022-12-31T23:58:19.798Z,97.81
